Terminal Aerodrome Forecast
Issued by NWS

Home | Current Version | Previous Version | Text Only | Print | Product List | Glossary Off
Versions: 1 2 3 4 5 6 7 8 9 10 11 12 13 14 15

000
FTUS41 KCLE 062100 AAC
TAFFDY
TAF AMD
KFDY 062100Z 0621/0718 08012KT 5SM BR OVC025
      TEMPO 0621/0623 09010KT 2SM BR OVC005
     FM062300 27013KT P6SM OVC025
     FM071200 24010KT P6SM SCT025 BKN150=

USA.gov is the U.S. government's official web portal to all federal, state and local government web resources and services.